sensor_id;sensor_type;location;lat;lon;timestamp;pressure;altitude;pressure_sealevel;temperature;humidity
48792;BME280;34587;48.816;9.420;2024-01-06T00:01:24;97633.94;;;4.58;100.00
48792;BME280;34587;48.816;9.420;2024-01-06T00:03:50;97637.44;;;4.49;100.00
48792;BME280;34587;48.816;9.420;2024-01-06T00:06:15;97643.47;;;4.50;100.00
48792;BME280;34587;48.816;9.420;2024-01-06T00:08:40;97647.72;;;4.51;100.00
48792;BME280;34587;48.816;9.420;2024-01-06T00:11:06;97640.69;;;4.65;100.00
48792;BME280;34587;48.816;9.420;2024-01-06T00:13:31;97647.53;;;4.63;100.00
48792;BME280;34587;48.816;9.420;2024-01-06T00:15:56;97658.75;;;4.56;100.00
48792;BME280;34587;48.816;9.420;2024-01-06T00:18:22;97648.59;;;4.48;100.00
48792;BME280;34587;48.816;9.420;2024-01-06T00:20:47;97654.56;;;4.49;100.00
48792;BME280;34587;48.816;9.420;2024-01-06T00:23:13;97651.19;;;4.47;100.00
48792;BME280;34587;48.816;9.420;2024-01-06T00:25:38;97648.63;;;4.45;100.00
48792;BME280;34587;48.816;9.420;2024-01-06T00:28:03;97652.88;;;4.45;100.00
48792;BME280;34587;48.816;9.420;2024-01-06T00:30:29;97652.84;;;4.49;100.00
48792;BME280;34587;48.816;9.420;2024-01-06T00:32:54;97654.59;;;4.47;100.00
48792;BME280;34587;48.816;9.420;2024-01-06T00:35:20;97659.69;;;4.49;100.00
48792;BME280;34587;48.816;9.420;2024-01-06T00:37:45;97653.72;;;4.48;100.00
48792;BME280;34587;48.816;9.420;2024-01-06T00:40:11;97657.97;;;4.51;100.00
48792;BME280;34587;48.816;9.420;2024-01-06T00:42:36;97663.94;;;4.51;100.00
48792;BME280;34587;48.816;9.420;2024-01-06T00:45:01;97659.63;;;4.55;100.00
48792;BME280;34587;48.816;9.420;2024-01-06T00:47:27;97662.22;;;4.52;100.00
48792;BME280;34587;48.816;9.420;2024-01-06T00:49:52;97660.47;;;4.55;100.00
48792;BME280;34587;48.816;9.420;2024-01-06T00:52:17;97661.34;;;4.53;100.00
48792;BME280;34587;48.816;9.420;2024-01-06T00:54:43;97667.38;;;4.50;100.00
48792;BME280;34587;48.816;9.420;2024-01-06T00:57:08;97665.59;;;4.54;100.00
48792;BME280;34587;48.816;9.420;2024-01-06T00:59:33;97662.19;;;4.55;100.00
48792;BME280;34587;48.816;9.420;2024-01-06T05:17:00;97795.31;;;3.85;100.00
48792;BME280;34587;48.816;9.420;2024-01-06T05:19:25;97797.03;;;3.83;100.00
48792;BME280;34587;48.816;9.420;2024-01-06T05:21:50;97795.16;;;4.07;100.00
48792;BME280;34587;48.816;9.420;2024-01-06T05:24:17;97795.16;;;4.07;100.00
48792;BME280;34587;48.816;9.420;2024-01-06T05:26:44;97806.31;;;4.01;100.00
48792;BME280;34587;48.816;9.420;2024-01-06T05:29:09;97800.28;;;4.07;100.00
48792;BME280;34587;48.816;9.420;2024-01-06T05:31:34;97808.84;;;4.03;100.00
48792;BME280;34587;48.816;9.420;2024-01-06T05:34:00;97809.69;;;4.06;100.00
48792;BME280;34587;48.816;9.420;2024-01-06T05:36:25;97803.69;;;4.06;100.00
48792;BME280;34587;48.816;9.420;2024-01-06T05:38:50;97815.66;;;4.07;100.00
48792;BME280;34587;48.816;9.420;2024-01-06T05:41:16;97811.44;;;4.01;100.00
48792;BME280;34587;48.816;9.420;2024-01-06T05:43:41;97819.06;;;4.06;100.00
48792;BME280;34587;48.816;9.420;2024-01-06T05:46:07;97817.34;;;4.08;100.00
48792;BME280;34587;48.816;9.420;2024-01-06T05:48:32;97825.03;;;4.11;100.00
48792;BME280;34587;48.816;9.420;2024-01-06T05:50:58;97820.72;;;4.13;100.00
48792;BME280;34587;48.816;9.420;2024-01-06T05:53:23;97821.59;;;4.10;100.00
48792;BME280;34587;48.816;9.420;2024-01-06T05:55:48;97827.59;;;4.09;100.00
48792;BME280;34587;48.816;9.420;2024-01-06T05:58:14;97832.66;;;4.17;100.00
48792;BME280;34587;48.816;9.420;2024-01-06T06:00:39;97839.47;;;4.21;100.00
48792;BME280;34587;48.816;9.420;2024-01-06T06:03:05;97846.25;;;4.25;100.00
48792;BME280;34587;48.816;9.420;2024-01-06T06:05:30;97848.00;;;4.20;100.00
48792;BME280;34587;48.816;9.420;2024-01-06T06:07:55;97849.75;;;4.15;100.00
48792;BME280;34587;48.816;9.420;2024-01-06T06:10:21;97854.03;;;4.18;100.00
48792;BME280;34587;48.816;9.420;2024-01-06T06:12:47;97854.88;;;4.15;100.00
48792;BME280;34587;48.816;9.420;2024-01-06T06:15:12;97861.75;;;4.13;100.00
48792;BME280;34587;48.816;9.420;2024-01-06T06:17:38;97861.75;;;4.13;100.00
48792;BME280;34587;48.816;9.420;2024-01-06T06:20:04;97861.75;;;4.11;100.00
48792;BME280;34587;48.816;9.420;2024-01-06T06:22:31;97860.88;;;4.14;100.00
48792;BME280;34587;48.816;9.420;2024-01-06T06:24:57;97864.34;;;4.08;100.00
48792;BME280;34587;48.816;9.420;2024-01-06T06:27:23;97865.25;;;4.03;100.00
48792;BME280;34587;48.816;9.420;2024-01-06T06:29:48;97860.06;;;4.12;100.00
48792;BME280;34587;48.816;9.420;2024-01-06T06:32:14;97871.06;;;4.23;100.00
48792;BME280;34587;48.816;9.420;2024-01-06T06:34:39;97874.56;;;4.16;100.00
48792;BME280;34587;48.816;9.420;2024-01-06T06:37:04;97878.75;;;4.26;100.00
48792;BME280;34587;48.816;9.420;2024-01-06T06:39:31;97877.84;;;4.29;100.00
48792;BME280;34587;48.816;9.420;2024-01-06T06:41:57;97874.53;;;4.18;100.00
48792;BME280;34587;48.816;9.420;2024-01-06T06:44:22;97880.50;;;4.15;100.00
48792;BME280;34587;48.816;9.420;2024-01-06T06:46:48;97887.38;;;4.16;100.00
48792;BME280;34587;48.816;9.420;2024-01-06T06:49:14;97882.97;;;4.29;100.00
48792;BME280;34587;48.816;9.420;2024-01-06T06:51:39;97883.06;;;4.21;100.00
48792;BME280;34587;48.816;9.420;2024-01-06T06:54:11;97890.69;;;4.30;100.00
48792;BME280;34587;48.816;9.420;2024-01-06T06:56:36;97890.69;;;4.27;100.00
48792;BME280;34587;48.816;9.420;2024-01-06T06:59:01;97887.38;;;4.16;100.00
48792;BME280;34587;48.816;9.420;2024-01-06T07:01:27;97899.31;;;4.14;100.00
48792;BME280;34587;48.816;9.420;2024-01-06T07:03:52;97906.19;;;4.12;100.00
48792;BME280;34587;48.816;9.420;2024-01-06T07:06:18;97894.19;;;4.17;100.00
48792;BME280;34587;48.816;9.420;2024-01-06T07:08:44;97903.63;;;4.12;100.00
48792;BME280;34587;48.816;9.420;2024-01-06T07:11:09;97895.91;;;4.15;100.00
48792;BME280;34587;48.816;9.420;2024-01-06T07:13:36;97902.75;;;4.16;100.00
48792;BME280;34587;48.816;9.420;2024-01-06T07:16:02;97902.72;;;4.19;100.00
48792;BME280;34587;48.816;9.420;2024-01-06T07:18:27;97906.06;;;4.30;100.00
48792;BME280;34587;48.816;9.420;2024-01-06T07:20:52;97916.34;;;4.27;100.00
48792;BME280;34587;48.816;9.420;2024-01-06T07:23:17;97916.34;;;4.27;100.00
48792;BME280;34587;48.816;9.420;2024-01-06T07:25:43;97921.47;;;4.24;100.00
48792;BME280;34587;48.816;9.420;2024-01-06T07:28:08;97920.47;;;4.44;100.00
48792;BME280;34587;48.816;9.420;2024-01-06T07:30:34;97933.41;;;4.28;100.00
48792;BME280;34587;48.816;9.420;2024-01-06T07:32:59;97928.28;;;4.28;100.00
48792;BME280;34587;48.816;9.420;2024-01-06T07:35:25;97934.28;;;4.27;100.00
48792;BME280;34587;48.816;9.420;2024-01-06T07:37:50;97926.59;;;4.24;100.00
48792;BME280;34587;48.816;9.420;2024-01-06T07:40:16;97920.66;;;4.22;100.00
48792;BME280;34587;48.816;9.420;2024-01-06T07:42:42;97925.75;;;4.24;100.00
48792;BME280;34587;48.816;9.420;2024-01-06T07:45:09;97920.63;;;4.27;100.00
48792;BME280;34587;48.816;9.420;2024-01-06T07:47:34;97915.44;;;4.33;100.00
48792;BME280;34587;48.816;9.420;2024-01-06T07:49:59;97919.66;;;4.42;100.00
48792;BME280;34587;48.816;9.420;2024-01-06T07:52:24;97921.41;;;4.36;100.00
48792;BME280;34587;48.816;9.420;2024-01-06T07:54:50;97923.09;;;4.34;100.00
48792;BME280;34587;48.816;9.420;2024-01-06T07:57:15;97933.34;;;4.37;100.00
48792;BME280;34587;48.816;9.420;2024-01-06T07:59:40;97923.06;;;4.45;100.00
48792;BME280;34587;48.816;9.420;2024-01-06T08:02:06;97924.72;;;4.48;100.00
48792;BME280;34587;48.816;9.420;2024-01-06T08:04:32;97923.03;;;4.50;100.00
48792;BME280;34587;48.816;9.420;2024-01-06T08:06:57;97928.09;;;4.53;100.00
48792;BME280;34587;48.816;9.420;2024-01-06T08:09:22;97925.50;;;4.59;100.00
48792;BME280;34587;48.816;9.420;2024-01-06T08:11:49;97924.59;;;4.63;100.00
48792;BME280;34587;48.816;9.420;2024-01-06T08:14:14;97922.00;;;4.68;100.00
48792;BME280;34587;48.816;9.420;2024-01-06T08:16:39;97925.34;;;4.77;100.00
48792;BME280;34587;48.816;9.420;2024-01-06T08:19:05;97927.91;;;4.80;100.00
48792;BME280;34587;48.816;9.420;2024-01-06T08:21:30;97926.13;;;4.88;100.00
48792;BME280;34587;48.816;9.420;2024-01-06T08:23:55;97928.63;;;4.95;100.00
48792;BME280;34587;48.816;9.420;2024-01-06T08:26:21;97921.66;;;5.06;100.00
48792;BME280;34587;48.816;9.420;2024-01-06T08:28:46;97925.81;;;5.19;100.00
48792;BME280;34587;48.816;9.420;2024-01-06T08:31:12;97933.56;;;5.14;100.00
48792;BME280;34587;48.816;9.420;2024-01-06T08:33:37;97930.16;;;5.14;100.00
48792;BME280;34587;48.816;9.420;2024-01-06T08:36:02;97933.41;;;5.27;100.00
48792;BME280;34587;48.816;9.420;2024-01-06T08:38:28;97935.84;;;5.40;100.00
48792;BME280;34587;48.816;9.420;2024-01-06T08:40:53;97937.75;;;5.23;100.00
48792;BME280;34587;48.816;9.420;2024-01-06T08:43:18;97946.38;;;5.16;100.00
48792;BME280;34587;48.816;9.420;2024-01-06T08:45:44;97940.22;;;5.34;100.00
48792;BME280;34587;48.816;9.420;2024-01-06T08:48:09;97943.69;;;5.27;100.00
48792;BME280;34587;48.816;9.420;2024-01-06T08:50:36;97944.59;;;5.21;100.00
48792;BME280;34587;48.816;9.420;2024-01-06T08:53:01;97950.56;;;5.28;100.00
48792;BME280;34587;48.816;9.420;2024-01-06T08:55:27;97950.78;;;5.05;100.00
48792;BME280;34587;48.816;9.420;2024-01-06T08:57:52;97947.22;;;5.18;100.00
48792;BME280;34587;48.816;9.420;2024-01-06T09:00:18;97959.06;;;5.31;100.00
48792;BME280;34587;48.816;9.420;2024-01-06T09:02:43;97962.38;;;5.41;100.00
48792;BME280;34587;48.816;9.420;2024-01-06T09:05:08;97953.88;;;5.36;100.00
48792;BME280;34587;48.816;9.420;2024-01-06T09:07:33;97961.72;;;5.24;100.00
48792;BME280;34587;48.816;9.420;2024-01-06T09:09:59;97967.69;;;5.24;100.00
48792;BME280;34587;48.816;9.420;2024-01-06T09:12:24;97964.22;;;5.27;100.00
48792;BME280;34587;48.816;9.420;2024-01-06T09:14:49;97959.94;;;5.30;100.00
48792;BME280;34587;48.816;9.420;2024-01-06T09:17:15;97961.56;;;5.39;100.00
48792;BME280;34587;48.816;9.420;2024-01-06T09:19:40;97970.00;;;5.52;100.00
48792;BME280;34587;48.816;9.420;2024-01-06T09:22:05;97964.88;;;5.49;100.00
48792;BME280;34587;48.816;9.420;2024-01-06T09:24:31;97971.75;;;5.47;100.00
48792;BME280;34587;48.816;9.420;2024-01-06T09:26:56;97970.81;;;5.54;100.00
48792;BME280;34587;48.816;9.420;2024-01-06T09:29:22;97977.53;;;5.65;100.00
48792;BME280;34587;48.816;9.420;2024-01-06T09:31:47;97974.91;;;5.72;100.00
48792;BME280;34587;48.816;9.420;2024-01-06T09:34:12;97979.88;;;5.85;100.00
48792;BME280;34587;48.816;9.420;2024-01-06T09:36:38;97979.16;;;5.76;100.00
48792;BME280;34587;48.816;9.420;2024-01-06T09:39:03;97986.75;;;5.83;100.00
48792;BME280;34587;48.816;9.420;2024-01-06T09:41:30;97988.53;;;5.75;100.00
48792;BME280;34587;48.816;9.420;2024-01-06T09:43:56;97990.13;;;5.91;100.00
48792;BME280;34587;48.816;9.420;2024-01-06T09:46:24;98003.84;;;5.87;100.00
48792;BME280;34587;48.816;9.420;2024-01-06T09:48:52;98002.00;;;5.99;100.00
48792;BME280;34587;48.816;9.420;2024-01-06T09:51:18;98003.91;;;5.80;100.00
48792;BME280;34587;48.816;9.420;2024-01-06T09:54:04;98008.22;;;5.81;100.00
48792;BME280;34587;48.816;9.420;2024-01-06T09:56:33;98009.09;;;5.75;100.00
48792;BME280;34587;48.816;9.420;2024-01-06T09:58:59;98006.41;;;5.87;100.00
48792;BME280;34587;48.816;9.420;2024-01-06T10:01:24;98008.34;;;5.65;100.00
48792;BME280;34587;48.816;9.420;2024-01-06T10:03:49;98003.34;;;5.55;100.00
48792;BME280;34587;48.816;9.420;2024-01-06T10:06:15;98005.09;;;5.51;100.00
48792;BME280;34587;48.816;9.420;2024-01-06T10:08:46;97998.25;;;5.52;100.00
48792;BME280;34587;48.816;9.420;2024-01-06T10:11:13;97999.06;;;5.57;100.00
48792;BME280;34587;48.816;9.420;2024-01-06T10:13:38;97999.00;;;5.60;100.00
48792;BME280;34587;48.816;9.420;2024-01-06T10:16:04;97994.72;;;5.59;100.00
48792;BME280;34587;48.816;9.420;2024-01-06T10:18:30;98005.00;;;5.62;100.00
48792;BME280;34587;48.816;9.420;2024-01-06T10:20:56;98004.03;;;5.69;100.00
48792;BME280;34587;48.816;9.420;2024-01-06T10:23:22;98004.78;;;5.80;100.00
48792;BME280;34587;48.816;9.420;2024-01-06T10:25:51;98003.13;;;5.76;100.00
48792;BME280;34587;48.816;9.420;2024-01-06T10:28:17;98007.16;;;5.99;100.00
48792;BME280;34587;48.816;9.420;2024-01-06T10:30:42;98006.53;;;5.75;100.00
48792;BME280;34587;48.816;9.420;2024-01-06T10:33:09;98004.09;;;5.66;100.00
48792;BME280;34587;48.816;9.420;2024-01-06T10:35:36;98004.25;;;5.52;100.00
48792;BME280;34587;48.816;9.420;2024-01-06T10:38:01;98011.22;;;5.39;100.00
48792;BME280;34587;48.816;9.420;2024-01-06T10:40:27;98006.00;;;5.46;100.00
48792;BME280;34587;48.816;9.420;2024-01-06T10:42:52;98000.88;;;5.47;100.00
48792;BME280;34587;48.816;9.420;2024-01-06T10:45:18;98002.47;;;5.56;100.00
48792;BME280;34587;48.816;9.420;2024-01-06T10:47:43;98005.88;;;5.61;100.00
48792;BME280;34587;48.816;9.420;2024-01-06T10:50:09;98002.47;;;5.56;100.00
48792;BME280;34587;48.816;9.420;2024-01-06T10:52:37;97997.31;;;5.56;100.00
48792;BME280;34587;48.816;9.420;2024-01-06T10:55:04;98004.94;;;5.65;100.00
48792;BME280;34587;48.816;9.420;2024-01-06T10:57:30;98002.31;;;5.71;100.00
48792;BME280;34587;48.816;9.420;2024-01-06T10:59:59;97997.38;;;5.53;100.00
48792;BME280;34587;48.816;9.420;2024-01-06T11:02:25;97995.78;;;5.41;100.00
48792;BME280;34587;48.816;9.420;2024-01-06T11:04:51;97996.50;;;5.54;100.00
48792;BME280;34587;48.816;9.420;2024-01-06T11:07:19;97995.78;;;5.43;100.00
48792;BME280;34587;48.816;9.420;2024-01-06T11:10:04;97997.28;;;5.60;100.00
48792;BME280;34587;48.816;9.420;2024-01-06T11:12:31;98000.13;;;5.34;100.00
48792;BME280;34587;48.816;9.420;2024-01-06T11:14:56;97997.41;;;5.50;100.00
48792;BME280;34587;48.816;9.420;2024-01-06T11:18:01;97999.13;;;5.46;100.00
48792;BME280;34587;48.816;9.420;2024-01-06T11:20:26;98002.53;;;5.53;100.00
48792;BME280;34587;48.816;9.420;2024-01-06T11:22:54;98000.03;;;5.44;100.00
48792;BME280;34587;48.816;9.420;2024-01-06T11:25:21;97999.97;;;5.51;100.00
48792;BME280;34587;48.816;9.420;2024-01-06T11:27:48;97993.97;;;5.51;100.00
48792;BME280;34587;48.816;9.420;2024-01-06T11:30:20;97992.16;;;5.59;100.00
48792;BME280;34587;48.816;9.420;2024-01-06T11:32:46;97995.69;;;5.52;100.00
48792;BME280;34587;48.816;9.420;2024-01-06T11:35:14;97993.88;;;5.60;100.00
48792;BME280;34587;48.816;9.420;2024-01-06T11:42:34;97975.91;;;5.58;100.00
48792;BME280;34587;48.816;9.420;2024-01-06T11:45:04;97980.28;;;5.49;100.00
48792;BME280;34587;48.816;9.420;2024-01-06T11:47:34;97983.88;;;5.32;100.00
48792;BME280;34587;48.816;9.420;2024-01-06T11:50:00;97971.06;;;5.29;100.00
48792;BME280;34587;48.816;9.420;2024-01-06T11:52:30;97972.59;;;5.46;100.00
48792;BME280;34587;48.816;9.420;2024-01-06T11:54:55;97974.25;;;5.53;100.00
48792;BME280;34587;48.816;9.420;2024-01-06T11:57:21;97973.53;;;5.41;100.00
48792;BME280;34587;48.816;9.420;2024-01-06T11:59:47;97970.91;;;5.45;100.00
48792;BME280;34587;48.816;9.420;2024-01-06T12:02:13;97976.09;;;5.41;100.00
48792;BME280;34587;48.816;9.420;2024-01-06T12:04:39;97977.00;;;5.34;100.00
48792;BME280;34587;48.816;9.420;2024-01-06T12:07:09;97970.13;;;5.36;100.00
48792;BME280;34587;48.816;9.420;2024-01-06T12:09:35;97971.78;;;5.44;100.00
48792;BME280;34587;48.816;9.420;2024-01-06T12:12:04;97969.28;;;5.36;100.00
48792;BME280;34587;48.816;9.420;2024-01-06T12:14:34;97970.25;;;5.24;100.00
48792;BME280;34587;48.816;9.420;2024-01-06T12:17:00;97966.75;;;5.33;100.00
48792;BME280;34587;48.816;9.420;2024-01-06T12:19:32;97967.47;;;5.47;100.00
48792;BME280;34587;48.816;9.420;2024-01-06T12:21:58;97968.44;;;5.35;100.00
48792;BME280;34587;48.816;9.420;2024-01-06T12:24:24;97961.59;;;5.37;100.00
48792;BME280;34587;48.816;9.420;2024-01-06T12:26:52;97955.53;;;5.41;100.00
48792;BME280;34587;48.816;9.420;2024-01-06T12:29:17;97959.97;;;5.27;100.00
48792;BME280;34587;48.816;9.420;2024-01-06T12:31:44;97955.66;;;5.32;100.00
48792;BME280;34587;48.816;9.420;2024-01-06T12:34:10;97953.03;;;5.35;100.00
48792;BME280;34587;48.816;9.420;2024-01-06T12:36:39;97953.84;;;5.39;100.00
48792;BME280;34587;48.816;9.420;2024-01-06T12:39:05;97953.88;;;5.36;100.00
48792;BME280;34587;48.816;9.420;2024-01-06T12:41:31;97958.97;;;5.40;100.00
48792;BME280;34587;48.816;9.420;2024-01-06T12:43:59;97957.19;;;5.46;100.00
48792;BME280;34587;48.816;9.420;2024-01-06T12:46:26;97959.66;;;5.55;100.00
48792;BME280;34587;48.816;9.420;2024-01-06T12:48:51;97955.44;;;5.49;100.00
48792;BME280;34587;48.816;9.420;2024-01-06T12:51:16;97951.91;;;5.59;100.00
48792;BME280;34587;48.816;9.420;2024-01-06T12:53:42;97950.09;;;5.67;100.00
48792;BME280;34587;48.816;9.420;2024-01-06T12:56:07;97956.03;;;5.73;100.00
48792;BME280;34587;48.816;9.420;2024-01-06T12:58:33;97952.69;;;5.66;100.00
48792;BME280;34587;48.816;9.420;2024-01-06T13:00:59;97952.50;;;5.81;100.00
48792;BME280;34587;48.816;9.420;2024-01-06T13:03:24;97955.28;;;5.63;100.00
48792;BME280;34587;48.816;9.420;2024-01-06T13:05:49;97954.47;;;5.61;100.00
48792;BME280;34587;48.816;9.420;2024-01-06T13:08:15;97956.34;;;5.47;100.00
48792;BME280;34587;48.816;9.420;2024-01-06T13:10:40;97957.88;;;5.60;100.00
48792;BME280;34587;48.816;9.420;2024-01-06T13:13:05;97955.13;;;5.75;100.00
48792;BME280;34587;48.816;9.420;2024-01-06T13:15:32;97959.56;;;5.64;100.00
48792;BME280;34587;48.816;9.420;2024-01-06T13:17:57;97965.69;;;5.52;100.00
48792;BME280;34587;48.816;9.420;2024-01-06T13:20:23;97963.25;;;5.41;100.00
48792;BME280;34587;48.816;9.420;2024-01-06T13:22:48;97963.22;;;5.43;100.00
48792;BME280;34587;48.816;9.420;2024-01-06T13:25:13;97968.31;;;5.46;100.00
48792;BME280;34587;48.816;9.420;2024-01-06T13:27:40;97969.25;;;5.42;100.00
48792;BME280;34587;48.816;9.420;2024-01-06T13:30:06;97970.03;;;5.46;100.00
48792;BME280;34587;48.816;9.420;2024-01-06T13:32:31;97972.56;;;5.52;100.00
48792;BME280;34587;48.816;9.420;2024-01-06T13:34:57;97969.06;;;5.56;100.00
48792;BME280;34587;48.816;9.420;2024-01-06T13:37:29;97971.53;;;5.65;100.00
48792;BME280;34587;48.816;9.420;2024-01-06T13:39:55;97976.75;;;5.59;100.00
48792;BME280;34587;48.816;9.420;2024-01-06T13:42:20;97973.34;;;5.57;100.00
48792;BME280;34587;48.816;9.420;2024-01-06T13:44:47;97975.88;;;5.60;100.00
48792;BME280;34587;48.816;9.420;2024-01-06T13:47:13;97971.63;;;5.56;100.00
48792;BME280;34587;48.816;9.420;2024-01-06T13:49:38;97980.22;;;5.55;100.00
48792;BME280;34587;48.816;9.420;2024-01-06T13:52:04;97977.75;;;5.46;100.00
48792;BME280;34587;48.816;9.420;2024-01-06T13:54:29;97988.88;;;5.45;100.00
48792;BME280;34587;48.816;9.420;2024-01-06T13:56:55;97992.47;;;5.30;100.00
48792;BME280;34587;48.816;9.420;2024-01-06T13:59:20;97999.47;;;5.14;100.00
48792;BME280;34587;48.816;9.420;2024-01-06T14:01:45;98000.16;;;5.33;100.00
48792;BME280;34587;48.816;9.420;2024-01-06T14:04:11;98001.00;;;5.33;100.00
48792;BME280;34587;48.816;9.420;2024-01-06T14:06:36;98008.72;;;5.30;100.00
48792;BME280;34587;48.816;9.420;2024-01-06T14:09:04;98009.56;;;5.32;100.00
48792;BME280;34587;48.816;9.420;2024-01-06T14:11:31;98007.91;;;5.25;100.00
48792;BME280;34587;48.816;9.420;2024-01-06T14:13:57;98006.22;;;5.24;100.00
48792;BME280;34587;48.816;9.420;2024-01-06T14:16:23;98008.00;;;5.16;100.00
48792;BME280;34587;48.816;9.420;2024-01-06T14:18:48;98010.47;;;5.25;100.00
48792;BME280;34587;48.816;9.420;2024-01-06T14:21:14;98014.75;;;5.26;100.00
48792;BME280;34587;48.816;9.420;2024-01-06T14:23:43;98006.06;;;5.39;100.00
48792;BME280;34587;48.816;9.420;2024-01-06T14:26:08;98012.97;;;5.34;100.00
48792;BME280;34587;48.816;9.420;2024-01-06T14:28:34;98011.34;;;5.27;100.00
48792;BME280;34587;48.816;9.420;2024-01-06T14:31:00;98013.88;;;5.32;100.00
48792;BME280;34587;48.816;9.420;2024-01-06T14:33:25;98013.03;;;5.28;100.00
48792;BME280;34587;48.816;9.420;2024-01-06T14:35:52;98016.50;;;5.24;100.00
48792;BME280;34587;48.816;9.420;2024-01-06T14:38:17;98016.34;;;5.36;100.00
48792;BME280;34587;48.816;9.420;2024-01-06T14:40:43;98025.03;;;5.26;100.00
48792;BME280;34587;48.816;9.420;2024-01-06T14:43:08;98021.66;;;5.21;100.00
48792;BME280;34587;48.816;9.420;2024-01-06T14:45:35;98020.81;;;5.19;100.00
48792;BME280;34587;48.816;9.420;2024-01-06T14:48:00;98033.72;;;5.13;100.00
48792;BME280;34587;48.816;9.420;2024-01-06T14:50:26;98035.38;;;5.17;100.00
48792;BME280;34587;48.816;9.420;2024-01-06T14:52:51;98033.63;;;5.24;100.00
48792;BME280;34587;48.816;9.420;2024-01-06T14:55:17;98037.91;;;5.23;100.00
48792;BME280;34587;48.816;9.420;2024-01-06T14:57:43;98041.41;;;5.13;100.00
48792;BME280;34587;48.816;9.420;2024-01-06T15:00:09;98044.00;;;5.10;100.00
48792;BME280;34587;48.816;9.420;2024-01-06T15:02:38;98045.63;;;5.17;100.00
48792;BME280;34587;48.816;9.420;2024-01-06T15:05:05;98052.53;;;5.15;100.00
48792;BME280;34587;48.816;9.420;2024-01-06T15:07:31;98058.56;;;5.06;100.00
48792;BME280;34587;48.816;9.420;2024-01-06T15:10:00;98054.25;;;5.13;100.00
48792;BME280;34587;48.816;9.420;2024-01-06T15:12:29;98057.78;;;5.00;100.00
48792;BME280;34587;48.816;9.420;2024-01-06T15:14:54;98063.72;;;5.08;100.00
48792;BME280;34587;48.816;9.420;2024-01-06T15:17:19;98069.75;;;4.98;100.00
48792;BME280;34587;48.816;9.420;2024-01-06T15:19:45;98064.56;;;5.07;100.00
48792;BME280;34587;48.816;9.420;2024-01-06T15:22:11;98068.09;;;4.90;100.00
48792;BME280;34587;48.816;9.420;2024-01-06T15:24:36;98073.13;;;5.03;100.00
48792;BME280;34587;48.816;9.420;2024-01-06T15:27:01;98069.75;;;5.01;100.00
48792;BME280;34587;48.816;9.420;2024-01-06T15:29:26;98066.31;;;5.02;100.00
48792;BME280;34587;48.816;9.420;2024-01-06T15:31:52;98062.81;;;5.12;100.00
48792;BME280;34587;48.816;9.420;2024-01-06T15:34:22;98066.34;;;4.96;100.00
48792;BME280;34587;48.816;9.420;2024-01-06T15:36:48;98060.31;;;5.01;100.00
48792;BME280;34587;48.816;9.420;2024-01-06T15:39:13;98065.44;;;5.03;100.00
48792;BME280;34587;48.816;9.420;2024-01-06T15:41:39;98062.78;;;5.18;100.00
48792;BME280;34587;48.816;9.420;2024-01-06T15:44:04;98057.78;;;5.00;100.00
48792;BME280;34587;48.816;9.420;2024-01-06T15:46:29;98064.59;;;5.04;100.00
48792;BME280;34587;48.816;9.420;2024-01-06T15:48:55;98064.63;;;4.98;100.00
48792;BME280;34587;48.816;9.420;2024-01-06T15:51:20;98071.53;;;4.89;100.00
48792;BME280;34587;48.816;9.420;2024-01-06T15:53:48;98067.19;;;5.01;100.00
48792;BME280;34587;48.816;9.420;2024-01-06T15:56:13;98068.09;;;4.94;100.00
48792;BME280;34587;48.816;9.420;2024-01-06T15:58:38;98066.41;;;4.88;100.00
48792;BME280;34587;48.816;9.420;2024-01-06T16:01:04;98068.91;;;4.99;100.00
48792;BME280;34587;48.816;9.420;2024-01-06T16:03:31;98067.13;;;5.07;100.00
48792;BME280;34587;48.816;9.420;2024-01-06T16:05:56;98068.94;;;4.96;100.00
48792;BME280;34587;48.816;9.420;2024-01-06T16:08:22;98065.50;;;4.95;100.00
48792;BME280;34587;48.816;9.420;2024-01-06T16:10:47;98074.81;;;5.07;100.00
48792;BME280;34587;48.816;9.420;2024-01-06T16:13:12;98072.34;;;4.93;100.00
48792;BME280;34587;48.816;9.420;2024-01-06T16:15:38;98073.28;;;4.84;100.00
48792;BME280;34587;48.816;9.420;2024-01-06T16:18:03;98080.06;;;4.95;100.00
48792;BME280;34587;48.816;9.420;2024-01-06T16:20:29;98078.38;;;4.90;100.00
48792;BME280;34587;48.816;9.420;2024-01-06T16:22:54;98072.38;;;4.92;100.00
48792;BME280;34587;48.816;9.420;2024-01-06T16:25:21;98066.34;;;4.99;100.00
48792;BME280;34587;48.816;9.420;2024-01-06T16:27:46;98076.66;;;4.94;100.00
48792;BME280;34587;48.816;9.420;2024-01-06T16:30:12;98072.38;;;4.92;100.00
48792;BME280;34587;48.816;9.420;2024-01-06T16:32:38;98088.63;;;4.94;100.00
48792;BME280;34587;48.816;9.420;2024-01-06T16:35:04;98078.34;;;4.92;100.00
48792;BME280;34587;48.816;9.420;2024-01-06T16:37:29;98083.44;;;5.01;100.00
48792;BME280;34587;48.816;9.420;2024-01-06T16:39:54;98086.88;;;4.99;100.00
48792;BME280;34587;48.816;9.420;2024-01-06T16:42:20;98092.09;;;4.86;100.00
48792;BME280;34587;48.816;9.420;2024-01-06T16:44:45;98087.78;;;4.90;100.00
48792;BME280;34587;48.816;9.420;2024-01-06T16:47:10;98088.69;;;4.83;100.00
48792;BME280;34587;48.816;9.420;2024-01-06T16:49:36;98093.00;;;4.73;100.00
48792;BME280;34587;48.816;9.420;2024-01-06T16:52:01;98088.69;;;4.81;100.00
48792;BME280;34587;48.816;9.420;2024-01-06T16:54:26;98100.66;;;4.88;100.00
48792;BME280;34587;48.816;9.420;2024-01-06T16:56:52;98098.84;;;4.97;100.00
48792;BME280;34587;48.816;9.420;2024-01-06T16:59:17;98100.53;;;5.01;100.00
48792;BME280;34587;48.816;9.420;2024-01-06T17:01:42;98103.97;;;5.04;100.00
48792;BME280;34587;48.816;9.420;2024-01-06T17:04:08;98098.00;;;4.99;100.00
48792;BME280;34587;48.816;9.420;2024-01-06T17:06:34;98105.78;;;4.88;100.00
48792;BME280;34587;48.816;9.420;2024-01-06T17:08:59;98105.78;;;4.82;100.00
48792;BME280;34587;48.816;9.420;2024-01-06T17:11:24;98113.50;;;4.81;100.00
48792;BME280;34587;48.816;9.420;2024-01-06T17:13:50;98113.53;;;4.76;100.00